Time;durP1;ratioP1;P1;durP2;ratioP2;P2;SDS_P1;SDS_P2;PMS_P1;PMS_P2;Temp;Humidity;BMP_temperature;BMP_pressure;BME280_temperature;BME280_humidity;BME280_pressure;Samples;Min_cycle;Max_cycle;Signal;HPM_P1;HPM_P2
2022/08/24 00:02:13;;;;;;;;;;;22.70;99.90;;;;;;8427341;28;19924;-73
2022/08/24 00:06:18;;;;;;;;;;;22.70;99.90;;;;;;8408636;28;19928;-73
2022/08/24 00:10:20;;;;;;;;;;;22.60;99.90;;;;;;8419186;28;19932;-73
2022/08/24 00:14:22;;;;;;;;;;;22.50;99.90;;;;;;8416986;28;20371;-73
2022/08/24 00:18:23;;;;;;;;;;;22.50;99.90;;;;;;8415986;28;19924;-73
2022/08/24 00:22:25;;;;;;;;;;;22.40;99.90;;;;;;8413629;28;19925;-74
2022/08/24 00:31:29;;;;;;;;;;;22.30;99.90;;;;;;8419247;28;19985;-73
2022/08/24 00:35:31;;;;;;;;;;;22.20;99.90;;;;;;8418313;28;19928;-73
2022/08/24 00:39:33;;;;;;;;;;;22.20;99.90;;;;;;8411650;28;20372;-73
2022/08/24 00:43:34;;;;;;;;;;;22.10;99.90;;;;;;8415842;28;19924;-73
2022/08/24 00:47:42;;;;;;;;;;;22.10;99.90;;;;;;8451202;27;19924;-73
2022/08/24 00:52:11;;;;;;;;;;;22.10;99.90;;;;;;8413846;28;19930;-73
2022/08/24 00:56:19;;;;;;;;;;;22.00;99.90;;;;;;8409659;28;19928;-73
2022/08/24 01:00:23;;;;;;;;;;;22.00;99.90;;;;;;8424335;28;19925;-73
2022/08/24 01:04:28;;;;;;;;;;;21.90;99.90;;;;;;8429537;28;19924;-73
2022/08/24 01:08:29;;;;;;;;;;;21.90;99.90;;;;;;8410857;28;19935;-73
2022/08/24 01:12:33;;;;;;;;;;;21.90;99.90;;;;;;8416254;28;20184;-73
2022/08/24 01:20:58;;;;;;;;;;;21.80;99.90;;;;;;8412213;28;19931;-73
2022/08/24 01:25:00;;;;;;;;;;;21.70;99.90;;;;;;8417855;28;19924;-73
2022/08/24 01:29:05;;;;;;;;;;;21.70;99.90;;;;;;8447506;27;19936;-74
2022/08/24 01:33:07;;;;;;;;;;;21.60;99.90;;;;;;8418907;28;19931;-73
2022/08/24 01:37:09;;;;;;;;;;;21.60;99.90;;;;;;8418316;28;20213;-73
2022/08/24 01:41:11;;;;;;;;;;;21.50;99.90;;;;;;8414602;28;19924;-74
2022/08/24 01:45:13;;;;;;;;;;;21.50;99.90;;;;;;8426950;28;19931;-73
2022/08/24 01:49:15;;;;;;;;;;;21.50;99.90;;;;;;8418085;28;20606;-73
2022/08/24 01:53:18;;;;;;;;;;;21.50;99.90;;;;;;8406215;28;19924;-73
2022/08/24 01:57:22;;;;;;;;;;;21.40;99.90;;;;;;8418080;28;19947;-72
2022/08/24 02:01:25;;;;;;;;;;;21.40;99.90;;;;;;8406397;28;19924;-73
2022/08/24 02:05:27;;;;;;;;;;;21.40;99.90;;;;;;8414535;28;19924;-73
2022/08/24 02:09:29;;;;;;;;;;;21.30;99.90;;;;;;8423256;28;19932;-73
2022/08/24 02:13:32;;;;;;;;;;;21.30;99.90;;;;;;8413626;28;19924;-73
2022/08/24 02:17:34;;;;;;;;;;;21.20;99.90;;;;;;8421182;28;19931;-73
2022/08/24 02:21:35;;;;;;;;;;;21.20;99.90;;;;;;8410789;28;19966;-72
2022/08/24 02:25:37;;;;;;;;;;;21.20;99.90;;;;;;8417843;28;19931;-73
2022/08/24 02:29:39;;;;;;;;;;;21.10;99.90;;;;;;8416392;28;19932;-73
2022/08/24 02:33:41;;;;;;;;;;;21.10;99.90;;;;;;8406900;28;19931;-73
2022/08/24 02:37:42;;;;;;;;;;;21.00;99.90;;;;;;8413728;28;20295;-73
2022/08/24 02:41:44;;;;;;;;;;;21.00;99.90;;;;;;8407870;28;19924;-73
2022/08/24 02:45:46;;;;;;;;;;;21.00;99.90;;;;;;8417821;28;19924;-73
2022/08/24 02:49:50;;;;;;;;;;;20.90;99.90;;;;;;8414502;28;19924;-73
2022/08/24 02:53:52;;;;;;;;;;;20.90;99.90;;;;;;8420953;28;19928;-73
2022/08/24 02:57:54;;;;;;;;;;;20.90;99.90;;;;;;8414220;28;19925;-73
2022/08/24 03:01:56;;;;;;;;;;;20.80;99.90;;;;;;8416990;28;19954;-73
2022/08/24 03:05:58;;;;;;;;;;;20.80;99.90;;;;;;8410102;28;19925;-73
2022/08/24 03:09:59;;;;;;;;;;;20.80;99.90;;;;;;8424222;28;19924;-73
2022/08/24 03:14:01;;;;;;;;;;;20.70;99.90;;;;;;8399561;28;19927;-73
2022/08/24 03:18:03;;;;;;;;;;;20.70;99.90;;;;;;8415177;28;19931;-73
2022/08/24 03:22:05;;;;;;;;;;;20.60;99.90;;;;;;8414722;28;19931;-72
2022/08/24 03:26:06;;;;;;;;;;;20.60;99.90;;;;;;8410967;28;19924;-74
2022/08/24 03:30:11;;;;;;;;;;;20.60;99.90;;;;;;8406417;28;19943;-73
2022/08/24 03:34:13;;;;;;;;;;;20.60;99.90;;;;;;8411042;28;19939;-73
2022/08/24 03:38:16;;;;;;;;;;;20.50;99.90;;;;;;8413501;28;20382;-73
2022/08/24 03:42:17;;;;;;;;;;;20.50;99.90;;;;;;8411992;28;19931;-73
2022/08/24 03:46:21;;;;;;;;;;;20.50;99.90;;;;;;8447288;27;19928;-73
2022/08/24 03:50:23;;;;;;;;;;;20.40;99.90;;;;;;8422388;28;19928;-72
2022/08/24 03:54:24;;;;;;;;;;;20.40;99.90;;;;;;8423524;28;19933;-72
2022/08/24 04:08:34;;;;;;;;;;;20.30;99.90;;;;;;8430209;28;19970;-73
2022/08/24 04:12:36;;;;;;;;;;;20.20;99.90;;;;;;8409604;28;20372;-72
2022/08/24 04:16:37;;;;;;;;;;;20.20;99.90;;;;;;8398178;28;19924;-72
2022/08/24 04:20:40;;;;;;;;;;;20.20;99.90;;;;;;8391858;28;19928;-73
2022/08/24 04:24:42;;;;;;;;;;;20.20;99.90;;;;;;8425259;28;19924;-73
2022/08/24 04:28:44;;;;;;;;;;;20.20;99.90;;;;;;8405589;28;20383;-73
2022/08/24 04:32:45;;;;;;;;;;;20.20;99.90;;;;;;8422628;28;19931;-74
2022/08/24 04:36:47;;;;;;;;;;;20.10;99.90;;;;;;8421766;28;20383;-73
2022/08/24 04:40:49;;;;;;;;;;;20.10;99.90;;;;;;8424184;28;19936;-73
2022/08/24 04:44:50;;;;;;;;;;;20.10;99.90;;;;;;8420273;28;19932;-73
2022/08/24 04:48:52;;;;;;;;;;;20.00;99.90;;;;;;8424512;28;19928;-73
2022/08/24 04:52:54;;;;;;;;;;;20.00;99.90;;;;;;8399682;28;19935;-73
2022/08/24 04:56:55;;;;;;;;;;;20.00;99.90;;;;;;8413941;28;19924;-73
2022/08/24 05:00:57;;;;;;;;;;;20.00;99.90;;;;;;8411260;28;19931;-73
2022/08/24 05:04:59;;;;;;;;;;;20.00;99.90;;;;;;8415597;28;19973;-72
2022/08/24 05:09:02;;;;;;;;;;;20.00;99.90;;;;;;8438538;28;19931;-73
2022/08/24 05:13:04;;;;;;;;;;;20.00;99.90;;;;;;8419758;28;19928;-73
2022/08/24 05:17:05;;;;;;;;;;;20.00;99.90;;;;;;8420697;28;19928;-73
2022/08/24 05:21:13;;;;;;;;;;;20.00;99.90;;;;;;8424079;28;19947;-72
2022/08/24 05:25:14;;;;;;;;;;;20.00;99.90;;;;;;8411091;28;19939;-73
2022/08/24 05:29:17;;;;;;;;;;;20.10;99.90;;;;;;8403676;28;19932;-73
2022/08/24 05:33:19;;;;;;;;;;;20.20;99.90;;;;;;8416394;28;20259;-73
2022/08/24 05:37:21;;;;;;;;;;;20.20;99.90;;;;;;8414708;28;19932;-73
2022/08/24 05:41:23;;;;;;;;;;;20.20;99.90;;;;;;8414218;28;20344;-73
2022/08/24 05:45:25;;;;;;;;;;;20.20;99.90;;;;;;8390778;28;19972;-73
2022/08/24 05:49:27;;;;;;;;;;;20.30;99.90;;;;;;8412375;28;19947;-73
2022/08/24 05:53:35;;;;;;;;;;;20.30;99.90;;;;;;8276777;27;1928187;-74
2022/08/24 06:02:33;;;;;;;;;;;20.50;99.90;;;;;;8316735;28;20338;-74
2022/08/24 06:06:35;;;;;;;;;;;20.50;99.90;;;;;;8305949;28;19938;-74
2022/08/24 06:10:44;;;;;;;;;;;20.60;99.90;;;;;;8315974;28;22121;-75
2022/08/24 06:14:46;;;;;;;;;;;20.70;99.90;;;;;;8300582;28;19936;-72
2022/08/24 06:18:49;;;;;;;;;;;20.70;99.90;;;;;;8312154;28;19999;-72
2022/08/24 06:22:51;;;;;;;;;;;20.80;99.90;;;;;;8309316;28;19933;-72
2022/08/24 06:31:13;;;;;;;;;;;21.00;99.90;;;;;;8305826;28;19929;-72
2022/08/24 06:35:15;;;;;;;;;;;21.10;99.90;;;;;;8304085;27;20581;-73
2022/08/24 06:39:17;;;;;;;;;;;21.20;99.90;;;;;;8299429;28;19933;-72
2022/08/24 06:43:18;;;;;;;;;;;21.30;99.90;;;;;;8315783;28;19925;-72
2022/08/24 06:47:20;;;;;;;;;;;21.50;99.90;;;;;;8373259;28;19929;-72
2022/08/24 06:51:22;;;;;;;;;;;21.60;99.90;;;;;;8367635;28;19933;-72
2022/08/24 06:55:24;;;;;;;;;;;21.70;99.90;;;;;;8317407;28;19925;-72
2022/08/24 06:59:26;;;;;;;;;;;21.90;99.90;;;;;;8374946;28;19932;-73
2022/08/24 07:03:28;;;;;;;;;;;22.00;99.90;;;;;;8289765;28;19933;-73
2022/08/24 07:07:30;;;;;;;;;;;22.10;99.90;;;;;;8290969;28;20383;-72
2022/08/24 07:11:33;;;;;;;;;;;22.20;99.90;;;;;;8284949;28;19929;-72
2022/08/24 07:15:35;;;;;;;;;;;22.30;99.90;;;;;;8367474;28;19926;-73
2022/08/24 07:19:37;;;;;;;;;;;22.40;99.90;;;;;;8284489;28;19970;-72
2022/08/24 07:23:39;;;;;;;;;;;22.40;99.90;;;;;;8366944;28;19925;-72
2022/08/24 07:27:42;;;;;;;;;;;22.50;99.90;;;;;;8367132;28;20391;-72
2022/08/24 07:31:44;;;;;;;;;;;22.60;99.90;;;;;;8293055;28;19937;-72
2022/08/24 07:35:46;;;;;;;11.48;8.80;;;22.80;99.90;;;;;;8289028;28;19925;-73
2022/08/24 07:39:48;;;;;;;11.68;7.30;;;22.90;99.90;;;;;;8288259;28;20058;-72
2022/08/24 07:43:50;;;;;;;11.10;7.78;;;22.90;99.90;;;;;;8307502;28;20131;-72
2022/08/24 07:47:52;;;;;;;;;;;23.00;99.90;;;;;;8329204;28;20063;-73
2022/08/24 07:51:56;;;;;;;;;;;23.20;99.90;;;;;;8295454;28;19921;-72
2022/08/24 07:55:58;;;;;;;;;;;23.20;99.90;;;;;;8356221;28;19921;-72
2022/08/24 08:00:00;;;;;;;;;;;23.30;99.90;;;;;;8280628;28;19932;-72
2022/08/24 08:04:02;;;;;;;;;;;23.40;99.90;;;;;;8296900;28;19928;-73
2022/08/24 08:08:04;;;;;;;;;;;23.50;99.90;;;;;;8355894;28;19922;-72
2022/08/24 08:12:06;;;;;;;;;;;23.60;99.90;;;;;;8291823;28;19921;-73
2022/08/24 08:16:07;;;;;;;;;;;23.70;99.90;;;;;;8286934;28;20356;-73
2022/08/24 08:20:09;;;;;;;;;;;23.80;99.90;;;;;;8347060;28;20232;-73
2022/08/24 08:24:13;;;;;;;;;;;23.90;99.90;;;;;;8297122;28;19921;-72
2022/08/24 08:28:15;;;;;;;;;;;24.00;99.90;;;;;;8296933;28;19921;-73
2022/08/24 08:32:26;;;;;;;;;;;24.10;99.90;;;;;;8285236;28;20276;-72
2022/08/24 08:36:27;;;;;;;;;;;24.20;99.90;;;;;;8284698;28;19922;-73
2022/08/24 08:40:44;;;;;;;;;;;24.20;99.90;;;;;;8290458;28;19922;-73
2022/08/24 08:45:05;;;;;;;;;;;24.30;99.90;;;;;;8294813;28;19925;-73
2022/08/24 08:49:25;;;;;;;;;;;24.30;99.90;;;;;;8288772;28;19928;-73
2022/08/24 08:53:33;;;;;;;;;;;24.40;99.90;;;;;;8278952;28;20349;-73
2022/08/24 08:57:45;;;;;;;;;;;24.50;99.90;;;;;;8292696;28;19921;-73
2022/08/24 09:02:13;;;;;;;;;;;24.60;99.90;;;;;;8356265;27;19922;-73
2022/08/24 09:06:34;;;;;;;;;;;24.70;99.90;;;;;;8283374;28;19925;-73
2022/08/24 09:10:45;;;;;;;;;;;24.80;99.90;;;;;;8296649;28;20265;-74
2022/08/24 09:15:02;;;;;;;;;;;24.80;99.90;;;;;;8280027;28;20341;-73
2022/08/24 09:19:07;;;;;;;;;;;24.90;99.90;;;;;;8287772;28;20050;-73
2022/08/24 09:23:27;;;;;;;;;;;25.00;99.90;;;;;;8290747;28;20237;-73
2022/08/24 09:27:34;;;;;;;;;;;25.10;99.90;;;;;;8282437;28;19922;-73
2022/08/24 09:31:55;;;;;;;;;;;25.10;99.90;;;;;;8296330;28;20364;-73
2022/08/24 09:36:06;;;;;;;;;;;25.20;99.90;;;;;;8339385;28;19926;-73
2022/08/24 09:40:23;;;;;;;;;;;25.20;99.90;;;;;;8348371;28;19921;-73
2022/08/24 09:44:34;;;;;;;;;;;25.30;99.90;;;;;;8284419;28;20387;-73
2022/08/24 09:48:36;;;;;;;;;;;25.40;99.90;;;;;;8283389;28;19930;-72
2022/08/24 09:52:51;;;;;;;;;;;25.60;99.90;;;;;;8358627;28;19932;-73
2022/08/24 09:57:11;;;;;;;;;;;25.60;99.90;;;;;;8275884;28;19921;-73
2022/08/24 10:01:36;;;;;;;;;;;25.70;99.90;;;;;;8286131;28;19928;-74
2022/08/24 10:05:46;;;;;;;;;;;25.80;99.90;;;;;;8344868;28;19954;-73
2022/08/24 10:10:07;;;;;;;;;;;25.90;99.90;;;;;;8301069;28;20385;-73
2022/08/24 10:14:15;;;;;;;;;;;26.00;99.90;;;;;;8291861;28;19958;-72
2022/08/24 10:18:40;;;;;;;;;;;26.10;99.90;;;;;;8286063;28;19932;-74
2022/08/24 10:22:41;;;;;;;;;;;26.10;99.90;;;;;;8356121;28;19921;-73
2022/08/24 10:27:02;;;;;;;;;;;26.10;99.90;;;;;;8290122;28;20269;-73
2022/08/24 10:31:08;;;;;;;;;;;26.20;99.90;;;;;;8288383;28;19925;-73
2022/08/24 10:35:15;;;;;;;;;;;26.20;99.90;;;;;;8290731;28;19975;-73
2022/08/24 10:43:51;;;;;;;;;;;26.20;99.90;;;;;;8287039;28;19922;-73
2022/08/24 10:48:03;;;;;;;;;;;26.20;99.90;;;;;;8308749;28;20272;-73
2022/08/24 10:52:20;;;;;;;;;;;26.10;99.90;;;;;;8306497;28;19966;-73
2022/08/24 10:56:40;;;;;;;;;;;26.20;99.90;;;;;;8351061;28;19929;-73
2022/08/24 11:00:42;;;;;;;;;;;26.30;99.90;;;;;;8352201;28;19929;-73
2022/08/24 11:04:53;;;;;;;;;;;26.40;99.90;;;;;;8294025;28;19973;-72
2022/08/24 11:09:22;;;;;;;;;;;26.60;99.90;;;;;;8403364;27;19920;-73
2022/08/24 11:13:24;;;;;;;;;;;26.70;99.90;;;;;;8280471;28;19925;-74
2022/08/24 11:17:27;;;;;;;;;;;26.90;99.90;;;;;;8333979;28;19921;-73
2022/08/24 11:21:51;;;;;;;;;;;27.00;99.90;;;;;;8278218;28;19929;-74
2022/08/24 11:26:12;;;;;;;;;;;27.10;99.90;;;;;;8289657;28;20296;-73
2022/08/24 11:30:16;;;;;;;;;;;27.20;99.90;;;;;;8350162;28;19995;-74
2022/08/24 11:34:30;;;;;;;;;;;27.40;99.90;;;;;;8291122;28;19947;-73
2022/08/24 11:38:33;;;;;;;;;;;27.50;99.90;;;;;;8350123;28;19944;-73
2022/08/24 11:42:50;;;;;;;;;;;27.60;99.90;;;;;;8283806;28;19922;-74
2022/08/24 11:47:00;;;;;;;;;;;27.70;99.90;;;;;;8292527;28;19930;-73
2022/08/24 11:51:02;;;;;;;;;;;27.80;99.90;;;;;;8289694;28;19973;-73
2022/08/24 11:55:07;;;;;;;;;;;27.90;99.90;;;;;;8292071;28;19921;-73
2022/08/24 11:59:28;;;;;;;;;;;28.00;99.90;;;;;;8282111;28;20265;-73
2022/08/24 12:03:41;;;;;;;;;;;28.00;99.90;;;;;;8287122;28;19921;-72
2022/08/24 12:08:01;;;;;;;;;;;28.10;99.90;;;;;;8273126;28;19929;-74
2022/08/24 12:12:03;;;;;;;;;;;28.20;99.90;;;;;;8274886;28;19932;-74
2022/08/24 12:16:11;;;;;;;;;;;28.20;99.90;;;;;;8276022;28;20377;-74
2022/08/24 12:20:13;;;;;;;;;;;28.20;99.90;;;;;;8347841;28;20273;-74
2022/08/24 12:24:33;;;;;;;;;;;28.10;99.90;;;;;;8348696;28;19922;-73
2022/08/24 12:28:54;;;;;;;;;;;28.00;99.90;;;;;;8270415;28;19921;-73
2022/08/24 12:33:04;;;;;;;;;;;27.90;99.90;;;;;;8356344;28;19921;-73
2022/08/24 12:37:14;;;;;;;;;;;27.80;99.90;;;;;;8342335;28;19921;-73
2022/08/24 12:41:25;;;;;;;;;;;27.80;99.90;;;;;;8285452;28;19929;-73
2022/08/24 12:45:28;;;;;;;;;;;27.90;99.90;;;;;;8289282;28;19921;-72
2022/08/24 12:49:39;;;;;;;;;;;28.10;99.90;;;;;;8273225;28;20382;-73
2022/08/24 12:53:50;;;;;;;;;;;28.20;99.90;;;;;;8351155;28;19928;-74
2022/08/24 12:58:07;;;;;;;;;;;28.40;99.90;;;;;;8282417;28;20164;-73
2022/08/24 13:02:35;;;;;;;;;;;28.60;99.90;;;;;;8294745;28;19925;-73
2022/08/24 13:06:51;;;;;;;;;;;28.70;99.90;;;;;;8291364;28;19936;-74
2022/08/24 13:11:01;;;;;;;;;;;28.70;99.90;;;;;;8361424;28;19921;-73
2022/08/24 13:15:21;;;;;;;;;;;28.70;99.90;;;;;;8355320;28;20296;-72
2022/08/24 13:19:27;;;;;;;;;;;28.70;99.90;;;;;;8287925;28;19921;-73
2022/08/24 13:23:28;;;;;;;;;;;28.80;99.90;;;;;;8289035;28;19922;-73
2022/08/24 13:27:36;;;;;;;;;;;28.80;99.90;;;;;;8286645;28;20020;-73
2022/08/24 13:31:47;;;;;;;;;;;28.80;99.90;;;;;;8276624;28;19921;-73
2022/08/24 13:36:01;;;;;;;;;;;28.80;99.90;;;;;;8355355;28;19974;-73
2022/08/24 13:40:16;;;;;;;;;;;28.80;99.90;;;;;;8293115;28;20391;-74
2022/08/24 13:44:27;;;;;;;;;;;28.90;99.90;;;;;;8287537;28;20000;-74
2022/08/24 13:48:38;;;;;;;;;;;28.90;99.90;;;;;;8276044;28;19929;-73
2022/08/24 13:52:59;;;;;;;;;;;28.90;99.90;;;;;;8343944;28;20292;-73
2022/08/24 13:57:18;;;;;;;;;;;28.80;99.90;;;;;;8287260;28;20400;-73
2022/08/24 14:01:19;;;;;;;;;;;28.80;99.90;;;;;;8351543;28;19921;-74
2022/08/24 14:05:34;;;;;;;;;;;28.70;99.90;;;;;;8352038;28;20008;-74
2022/08/24 14:09:42;;;;;;;;;;;28.80;99.90;;;;;;8276779;28;19956;-73
2022/08/24 14:13:50;;;;;;;;;;;28.80;99.90;;;;;;8278063;28;19930;-73
2022/08/24 14:18:11;;;;;;;;;;;28.80;99.90;;;;;;8273454;28;19921;-73
2022/08/24 14:22:33;;;;;;;;;;;28.70;99.90;;;;;;8268741;28;19937;-74
2022/08/24 14:26:42;;;;;;;;;;;28.80;99.90;;;;;;8282991;28;19922;-73
2022/08/24 14:30:45;;;;;;;;;;;28.90;99.90;;;;;;8282132;28;20369;-73
2022/08/24 14:34:57;;;;;;;;;;;29.00;99.90;;;;;;8285357;28;19921;-73
2022/08/24 14:39:07;;;;;;;;;;;29.10;99.90;;;;;;8343068;28;19929;-73
2022/08/24 14:43:27;;;;;;;;;;;29.20;99.90;;;;;;8277952;28;19989;-73
2022/08/24 14:47:40;;;;;;;;;;;29.30;99.90;;;;;;8280345;28;20244;-73
2022/08/24 14:51:48;;;;;;;;;;;29.40;99.90;;;;;;8282706;28;19932;-73
2022/08/24 14:55:59;;;;;;;;;;;29.50;99.90;;;;;;8269598;28;19940;-73
2022/08/24 15:00:01;;;;;;;;;;;29.60;99.90;;;;;;8267502;28;19930;-73
2022/08/24 15:04:22;;;;;;;;;;;29.70;99.90;;;;;;8286982;28;19925;-74
2022/08/24 15:08:41;;;;;;;;;;;29.80;99.90;;;;;;8287322;28;20015;-74
2022/08/24 15:12:47;;;;;;;;;;;29.90;99.90;;;;;;8272777;28;19926;-74
2022/08/24 15:16:51;;;;;;;;;;;30.10;99.90;;;;;;8281021;28;19925;-73
2022/08/24 15:20:57;;;;;;;;;;;30.30;99.90;;;;;;8297089;28;20645;-74
2022/08/24 15:24:58;;;;;;;;;;;30.50;99.90;;;;;;8281452;28;19926;-74
2022/08/24 15:29:08;;;;;;;;;;;30.80;99.90;;;;;;8288805;28;20388;-73
2022/08/24 15:33:09;;;;;;;;;;;30.90;99.90;;;;;;8272810;28;20610;-73
2022/08/24 15:37:13;;;;;;;;;;;31.00;99.90;;;;;;8275424;28;19934;-73
2022/08/24 15:41:31;;;;;;;;;;;31.20;99.90;;;;;;8272804;28;19936;-73
2022/08/24 15:45:36;;;;;;;;;;;31.50;99.90;;;;;;8279782;28;20288;-74
2022/08/24 15:49:46;;;;;;;;;;;31.90;99.90;;;;;;8285204;28;19925;-73
2022/08/24 15:53:48;;;;;;;;;;;32.30;99.90;;;;;;8286225;28;19921;-74
2022/08/24 15:57:49;;;;;;;;;;;32.80;99.90;;;;;;8287241;28;20272;-74
2022/08/24 16:06:18;;;;;;;;;;;33.50;99.90;;;;;;8314212;28;19929;-74
2022/08/24 16:10:29;;;;;;;;;;;33.90;99.90;;;;;;8332275;28;19941;-74
2022/08/24 16:14:45;;;;;;;;;;;34.20;99.90;;;;;;8259633;28;19921;-74
2022/08/24 16:18:52;;;;;;;;;;;34.30;99.90;;;;;;8260528;28;19929;-75
2022/08/24 16:22:54;;;;;;;;;;;34.40;99.90;;;;;;8262834;28;19925;-74
2022/08/24 16:27:02;;;;;;;;;;;34.40;99.90;;;;;;8326255;28;20103;-74
2022/08/24 16:31:04;;;;;;;;;;;34.40;99.90;;;;;;8256973;28;24072;-74
2022/08/24 16:35:08;;;;;;;;;;;34.40;99.90;;;;;;8260056;28;19925;-74
2022/08/24 16:39:10;;;;;;;;;;;34.40;99.90;;;;;;8260062;28;20265;-74
2022/08/24 16:43:12;;;;;;;;;;;34.50;99.90;;;;;;8266603;28;19928;-74
2022/08/24 16:47:14;;;;;;;;;;;34.60;99.90;;;;;;8248219;28;19932;-74
2022/08/24 16:51:15;;;;;;;;;;;34.70;99.90;;;;;;8258922;28;19921;-75
2022/08/24 16:55:17;;;;;;;;;;;34.70;99.90;;;;;;8332104;28;19922;-74
2022/08/24 16:59:23;;;;;;;;;;;34.80;99.90;;;;;;8255480;28;24142;-74
2022/08/24 17:03:26;;;;;;;;;;;34.80;99.90;;;;;;8258738;28;19926;-74
2022/08/24 17:07:28;;;;;;;;;;;34.70;99.90;;;;;;8324011;28;20304;-74
2022/08/24 17:11:30;;;;;;;;;;;34.60;99.90;;;;;;8260228;28;19933;-75
2022/08/24 17:15:32;;;;;;;;;;;34.40;99.90;;;;;;8259117;28;19925;-74
2022/08/24 17:19:34;;;;;;;;;;;33.90;99.90;;;;;;8255860;28;19925;-75
2022/08/24 17:23:37;;;;;;;;;;;33.40;99.90;;;;;;8328323;28;19922;-75
2022/08/24 17:27:38;;;;;;;;;;;33.10;99.90;;;;;;8328880;28;24965;-75
2022/08/24 17:31:40;;;;;;;;;;;32.90;99.90;;;;;;8255830;28;20387;-74
2022/08/24 17:35:42;;;;;;;;;;;32.90;99.90;;;;;;8270470;28;19944;-75
2022/08/24 17:39:44;;;;;;;;;;;32.70;99.90;;;;;;8268683;28;19921;-74
2022/08/24 17:43:45;;;;;;;;;;;32.40;99.90;;;;;;8270427;28;20438;-74
2022/08/24 17:47:48;;;;;;;;;;;32.00;99.90;;;;;;8268166;28;19926;-74
2022/08/24 17:51:49;;;;;;;;;;;31.60;99.90;;;;;;8256249;28;19922;-74
2022/08/24 17:55:51;;;;;;;;;;;31.30;99.90;;;;;;8324975;28;19925;-74
2022/08/24 17:59:52;;;;;;;;;;;31.00;99.90;;;;;;8330450;28;19926;-74
2022/08/24 18:03:54;;;;;;;;;;;30.70;99.90;;;;;;8310357;28;19936;-74
2022/08/24 18:07:56;;;;;;;;;;;30.50;99.90;;;;;;8265344;28;19947;-73
2022/08/24 18:11:59;;;;;;;;;;;30.30;99.90;;;;;;8326960;28;19921;-73
2022/08/24 18:16:01;;;;;;;;;;;30.20;99.90;;;;;;8264942;28;19926;-73
2022/08/24 18:20:03;;;;;;;;;;;30.00;99.90;;;;;;8327339;28;20040;-74
2022/08/24 18:24:05;;;;;;;;;;;29.90;99.90;;;;;;8262554;28;19925;-74
2022/08/24 18:28:07;;;;;;;;;;;29.80;99.90;;;;;;8259485;28;19928;-73
2022/08/24 18:32:10;;;;;;;;;;;29.70;99.90;;;;;;8258170;28;19922;-73
2022/08/24 18:36:12;;;;;;;;;;;29.60;99.90;;;;;;8249898;28;20237;-73
2022/08/24 18:40:14;;;;;;;;;;;29.50;99.90;;;;;;8261711;28;19921;-73
2022/08/24 18:44:21;;;;;;;;;;;29.40;99.90;;;;;;8317289;28;20448;-73
2022/08/24 18:48:23;;;;;;;;;;;29.30;99.90;;;;;;8258899;28;19930;-73
2022/08/24 18:52:25;;;;;;;;;;;29.20;99.90;;;;;;8356922;28;19920;-73
2022/08/24 18:56:27;;;;;;;;;;;29.10;99.90;;;;;;8383940;28;19921;-73
2022/08/24 19:00:28;;;;;;;;;;;29.00;99.90;;;;;;8392906;28;19924;-74
2022/08/24 19:04:30;;;;;;;;;;;28.90;99.90;;;;;;8404639;28;20304;-73
2022/08/24 19:08:34;;;;;;;;;;;28.80;99.90;;;;;;8404868;28;19942;-73
2022/08/24 19:12:39;;;;;;;;;;;28.80;99.90;;;;;;8405034;28;19943;-73
2022/08/24 19:16:40;;;;;;;;;;;28.70;99.90;;;;;;8400705;28;19928;-73
2022/08/24 19:20:45;;;;;;;;;;;28.60;99.90;;;;;;8408331;28;20034;-73
2022/08/24 19:24:49;;;;;;;;;;;28.60;99.90;;;;;;8405500;28;19919;-73
2022/08/24 19:28:51;;;;;;;;;;;28.50;99.90;;;;;;8391514;28;19927;-73
2022/08/24 19:32:54;;;;;;;;;;;28.40;99.90;;;;;;8391954;28;19920;-73
2022/08/24 19:36:56;;;;;;;;;;;28.40;99.90;;;;;;8389346;28;19927;-73
2022/08/24 19:40:58;;;;;;;;;;;28.30;99.90;;;;;;8389105;28;19927;-73
2022/08/24 19:49:20;;;;;;;;;;;28.20;99.90;;;;;;8399066;28;19920;-74
2022/08/24 19:53:22;;;;;;;;;;;28.00;99.90;;;;;;8398775;28;20368;-73
2022/08/24 19:57:24;;;;;;;;;;;28.00;99.90;;;;;;8385175;28;19921;-74
2022/08/24 20:01:33;;;;;;;;;;;27.90;99.90;;;;;;8399061;28;19931;-73
2022/08/24 20:05:35;;;;;;;;;;;27.90;99.90;;;;;;8375563;28;19973;-73
2022/08/24 20:09:36;;;;;;;;;;;27.80;99.90;;;;;;8390092;28;19943;-72
2022/08/24 20:13:38;;;;;;;;;;;27.70;99.90;;;;;;8392572;28;20372;-74
2022/08/24 20:17:40;;;;;;;;;;;27.60;99.90;;;;;;8401424;28;19963;-73
2022/08/24 20:21:42;;;;;;;;;;;27.60;99.90;;;;;;8383142;28;20742;-73
2022/08/24 20:25:43;;;;;;;;;;;27.60;99.90;;;;;;8395015;28;19924;-73
2022/08/24 20:29:45;;;;;;;;;;;27.50;99.90;;;;;;8399062;28;20663;-73
2022/08/24 20:33:47;;;;;;;;;;;27.50;99.90;;;;;;8382369;28;19943;-73
2022/08/24 20:48:27;;;;;;;;;;;27.40;99.90;;;;;;8396796;28;19978;-74
2022/08/24 20:52:29;;;;;;;;;;;27.30;99.90;;;;;;8394027;28;19920;-73
2022/08/24 20:56:32;;;;;;;;;;;27.30;99.90;;;;;;8393325;28;20248;-73
2022/08/24 21:00:35;;;;;;;;;;;27.20;99.90;;;;;;8379222;28;19924;-73
2022/08/24 21:04:37;;;;;;;;;;;27.20;99.90;;;;;;8407980;28;19954;-73
2022/08/24 21:08:39;;;;;;;;;;;27.20;99.90;;;;;;8393732;28;19920;-73
2022/08/24 21:12:41;;;;;;;;;;;27.20;99.90;;;;;;8410182;28;19926;-73
2022/08/24 21:16:45;;;;;;;;;;;27.20;99.90;;;;;;8409370;28;20015;-73
2022/08/24 21:20:46;;;;;;;;;;;27.10;99.90;;;;;;8401484;28;20377;-73
2022/08/24 21:24:58;;;;;;;;;;;27.10;99.90;;;;;;8413959;28;24174;-74
2022/08/24 21:29:01;;;;;;;;;;;27.10;99.90;;;;;;8403656;28;19920;-74
2022/08/24 21:37:25;;;;;;;;;;;27.00;99.90;;;;;;8403687;28;20291;-73
2022/08/24 21:41:28;;;;;;;;;;;27.00;99.90;;;;;;8421741;28;19927;-73
2022/08/24 21:45:31;;;;;;;;;;;26.90;99.90;;;;;;8409483;28;19920;-73
2022/08/24 21:49:33;;;;;;;;;;;26.90;99.90;;;;;;8398569;28;19919;-73
2022/08/24 21:53:35;;;;;;;;;;;26.80;99.90;;;;;;8400625;28;19932;-74
2022/08/24 21:57:37;;;;;;;;;;;26.80;99.90;;;;;;8398323;28;20275;-73
2022/08/24 22:01:39;;;;;;;;;;;26.70;99.90;;;;;;8417763;28;19919;-73
2022/08/24 22:05:41;;;;;;;;;;;26.70;99.90;;;;;;8407495;28;19919;-74
2022/08/24 22:09:44;;;;;;;;;;;26.70;99.90;;;;;;8416217;28;19920;-73
2022/08/24 22:13:46;;;;;;;;;;;26.60;99.90;;;;;;8409622;28;20271;-74
2022/08/24 22:17:48;;;;;;;;;;;26.60;99.90;;;;;;8406548;28;20402;-74
2022/08/24 22:21:53;;;;;;;;;;;26.50;99.90;;;;;;8414491;28;20358;-73
2022/08/24 22:25:54;;;;;;;;;;;26.50;99.90;;;;;;8408543;28;22378;-73
2022/08/24 22:29:56;;;;;;;;;;;26.50;99.90;;;;;;8415538;28;20232;-73
2022/08/24 22:33:59;;;;;;;;;;;26.40;99.90;;;;;;8408432;28;19920;-73
2022/08/24 22:38:01;;;;;;;;;;;26.30;99.90;;;;;;8407562;28;20299;-74
2022/08/24 22:42:03;;;;;;;;;;;26.30;99.90;;;;;;8418011;28;19927;-74
2022/08/24 22:51:10;;;;;;;;;;;26.20;99.90;;;;;;8416273;28;19924;-73
2022/08/24 22:55:12;;;;;;;;;;;26.20;99.90;;;;;;8385537;28;19924;-73
2022/08/24 22:59:16;;;;;;;;;;;26.20;99.90;;;;;;8367682;28;19921;-73
2022/08/24 23:03:18;;;;;;;;;;;26.20;99.90;;;;;;8389950;28;19935;-73
2022/08/24 23:07:20;;;;;;;;;;;26.10;99.90;;;;;;8373551;28;19932;-73
2022/08/24 23:11:23;;;;;;;;;;;26.10;99.90;;;;;;8385439;28;19925;-74
2022/08/24 23:15:25;;;;;;;;;;;26.10;99.90;;;;;;8359695;28;19983;-73
2022/08/24 23:24:04;;;;;;;;;;;26.00;99.90;;;;;;8341627;28;20332;-73
2022/08/24 23:28:06;;;;;;;;;;;26.00;99.90;;;;;;8416205;28;19920;-73
2022/08/24 23:32:08;;;;;;;;;;;25.90;99.90;;;;;;8406231;28;19923;-73
2022/08/24 23:36:11;;;;;;;;;;;25.90;99.90;;;;;;8403991;28;19928;-73
2022/08/24 23:40:13;;;;;;;;;;;25.80;99.90;;;;;;8409426;28;19982;-73
2022/08/24 23:44:17;;;;;;;;;;;25.80;99.90;;;;;;8391004;28;20409;-74
2022/08/24 23:48:18;;;;;;;;;;;25.80;99.90;;;;;;8404715;28;19935;-74
2022/08/24 23:52:21;;;;;;;;;;;25.70;99.90;;;;;;8415486;28;19928;-73
2022/08/24 23:56:30;;;;;;;;;;;25.70;99.90;;;;;;8444124;28;19920;-74
